Terminal Aerodrome Forecast
Issued by NWS Los Angeles, CA

Home | Current Version | Previous Version | Text Only | Print | Product List | Glossary On
Versions: 1 2 3 4 5 6 7 8 9 10 11 12
438
FTUS46 KLOX 081729
TAFSMX
TAF
KSMX 081729Z 0818/0918 11004KT P6SM SKC
     FM082200 32006KT P6SM SKC
     FM090200 VRB05KT P6SM SKC=

USA.gov is the U.S. government's official web portal to all federal, state and local government web resources and services.